Elko, South Carolina
Current Conditions -  °F | °C
As of 2:35 PM on Friday 28 Nov 2014 (Local Time) from KBNL Reporting Station
Clear Clear  
Wind Chill: 50°   Ceiling: Unl
Heat Index: 50°   Visibility: NA
Dew Point: 25°   Wind: 3mph
Humidity: 37%   Direction: 350°N
Pressure: 30.32"   Gusts: NA
Location:  33.38°N, 81.38°W
Report Text: KBNL 281935Z AUTO 35003KT CLR 10/M04 A3032 RMK AO2
Loading
Personal Weather Stations






























Interactive Weather Map New forecast layout! Learn more

10-Day Weather Forecast

Advertisements
Track Severe Weather on mobile